Αναφορές METAR από Ελληνικά Αεροδρόμια

Σε αυτή τη σελίδα, μπορείτε να παρακολουθείτε τις αναφορές METAR που προέρχονται από τα κυριότερα αεροδρόμια της Ελλάδας. Το περιεχόμενο αποκωδικοποιείται, οπτικοποιείται και γίνεται κατανοητό από τον καθένα με τη χρήση του όμορφου δίγλωσσου γραφικού περιβάλλοντος του meteothes.gr!

Η αρχική κωδικοποιημένη αναφορά, συμπεριλαμβάνεται επίσης στο κάτω μέρος. Σε όποια καθεστερεί η ενημέρωση, το προειδοποιητικό μήνυμα "Μη ενημερωμένο METAR!" εμφανίζεται στο πάνω μέρος της με κόκκινα γράμματα.

Εχουν προστεθεί επίσης δύο αεροδρόμια από γειτονικές χώρες, την Οχρίδα(ΠΓΔΜ) και την Σόφια(Βουλγαρία) για να ελέγχουμε την εξέλιξη των ψυχρών εισβολών από τα Βόρεια!

LGTS - Thessaloniki/Makedonia-Elev 7m
Απόσταση από meteothes.gr: Ν 13km
Ενημερώθηκε: 16/01/2018 09:20
Αχλύς, Συννεφιά
Αχλύς, Συννεφιά
 Ανεμος από μεταβλητός
Ανεμος: μεταβλητός 6 km/h
Θερμοκρασία: 6°C
Σημ. Δρόσου: 5°C
Υγρασία: 93%
Βαρόμετρο: 1020 hPa
Συνθήκες: Αχλύς
Νέφωση: Συννεφιά
Ορατότητα: 2 km
Λεπτομέρειες Νεφών: κυρίως νεφελώδης 61 m
Συννεφιά 549 m
2018/01/16 07:20 LGTS 160720Z VRB03KT 1800 BR BKN002 OVC018 06/05 Q1020 NOSIG
LGAV - Athens/Elef. Venizelos-Elev 94m
Απόσταση από meteothes.gr: ΝΝΑ 312km
Ενημερώθηκε: 16/01/2018 09:20
κυρίως νεφελώδης
κυρίως νεφελώδης
 Ανεμος από μεταβλητός
Ανεμος: μεταβλητός 4 km/h
Θερμοκρασία: 12°C
Σημ. Δρόσου: 7°C
Υγρασία: 72%
Βαρόμετρο: 1020 hPa
Νέφωση: κυρίως νεφελώδης
Ορατότητα: 10 km
Λεπτομέρειες Νεφών: Μερικώς νεφελώδης 914 m
κυρίως νεφελώδης 2134 m
2018/01/16 07:20 LGAV 160720Z VRB02KT 9999 SCT030 BKN070 12/07 Q1020 NOSIG
 
LGAL - Alexandroupolis-Elev 3m
Απόσταση από meteothes.gr: Α 251km
Ενημερώθηκε: 16/01/2018 09:20
Μερικώς νεφελώδης
Μερικώς νεφελώδης
 Ανεμος από μεταβλητός
Ανεμος: μεταβλητός 6 km/h
Θερμοκρασία: 7°C
Σημ. Δρόσου: 5°C
Υγρασία: 87%
Βαρόμετρο: 1018 hPa
Νέφωση: Μερικώς νεφελώδης
Ορατότητα: 10 km
Λεπτομέρειες Νεφών: Μερικώς νεφελώδης 610 m
2018/01/16 07:20 LGAL 160720Z VRB03KT 9999 SCT020 07/05 Q1018
LGKV - Kavala/Crysoupolis-Elev 5m
Απόσταση από meteothes.gr: ΑΒΑ 144km
Ενημερώθηκε: 16/01/2018 09:20
Διάσπαρτα Nέφη
Διάσπαρτα Nέφη
 Ανεμος από ΔΝΔ
Ανεμος: ΔΝΔ 9 km/h
Θερμοκρασία: 6°C
Αίσθηση Ψύχρας: 4°C
Σημ. Δρόσου: 5°C
Υγρασία: 93%
Βαρόμετρο: 1018 hPa
Νέφωση: Διάσπαρτα Nέφη
Ορατότητα: 10 km
Λεπτομέρειες Νεφών: Διάσπαρτα Nέφη 366 m
2018/01/16 07:20 LGKV 160720Z 24005KT 9999 FEW012 06/05 Q1018
 
LGSK - Skiathos Island-Elev 15m
Απόσταση από meteothes.gr: ΝΝΑ 168km
Ενημερώθηκε: 15/01/2018 19:50
ΜΗ Ενημερωμένο METAR!
Μερικώς νεφελώδης
Μερικώς νεφελώδης
 Ανεμος από άπνοια
Ανεμος: άπνοια
Θερμοκρασία: 8°C
Σημ. Δρόσου: 5°C
Υγρασία: 82%
Βαρόμετρο: 1024 hPa
Νέφωση: Μερικώς νεφελώδης
Ορατότητα: 10 km
Λεπτομέρειες Νεφών: Διάσπαρτα Nέφη 366 m
Μερικώς νεφελώδης 762 m
2018/01/15 17:50 LGSK 151750Z 00000KT 9999 FEW012 SCT025 08/05 Q1024
LGLM - Limnos Island-Elev 5m
Απόσταση από meteothes.gr: ΑΝΑ 210km
Ενημερώθηκε: 16/01/2018 09:20
κυρίως νεφελώδης
κυρίως νεφελώδης
 Ανεμος από άπνοια
Ανεμος: άπνοια
Θερμοκρασία: 10°C
Σημ. Δρόσου: 9°C
Υγρασία: 94%
Βαρόμετρο: 1018 hPa
Νέφωση: κυρίως νεφελώδης
Ορατότητα: 10 km
Λεπτομέρειες Νεφών: Διάσπαρτα Nέφη 305 m
κυρίως νεφελώδης 914 m
2018/01/16 07:20 LGLM 160720Z 00000KT 9999 FEW010 BKN030 10/09 Q1018
 
LGMT - Mitilini Island-Elev 17m
Απόσταση από meteothes.gr: ΑΝΑ 358km
Ενημερώθηκε: 16/01/2018 09:20
Ασθενής βροχή, κυρίως νεφελώδης
Ασθενής βροχή, κυρίως νεφελώδης
 Ανεμος από Ν
Ανεμος: Ν 19 km/h
Θερμοκρασία: 11°C
Σημ. Δρόσου: 9°C
Υγρασία: 88%
Βαρόμετρο: 1021 hPa
Συνθήκες: Ασθενής βροχή
Νέφωση: κυρίως νεφελώδης
Ορατότητα: 7 km
Λεπτομέρειες Νεφών: Διάσπαρτα Nέφη 488 m
κυρίως νεφελώδης 610 m
2018/01/16 07:20 LGMT 160720Z 18010KT 7000 -RA FEW016TCU BKN020 11/09 Q1021
LGSY - Skiros Island-Elev 15m
Απόσταση από meteothes.gr: ΝΑ 227km
Ενημερώθηκε: 16/01/2018 08:50
Μερικώς νεφελώδης
Μερικώς νεφελώδης
 Ανεμος από ΔΝΔ
Ανεμος: ΔΝΔ 9 km/h
Θερμοκρασία: 13°C
Σημ. Δρόσου: 8°C
Υγρασία: 72%
Βαρόμετρο: 1018 hPa
Νέφωση: Μερικώς νεφελώδης
Ορατότητα: 10 km
Λεπτομέρειες Νεφών: Διάσπαρτα Nέφη 610 m
Μερικώς νεφελώδης 914 m
2018/01/16 06:50 LGSY 160650Z 25005KT 9999 FEW020 SCT030 13/08 Q1018 RMK BKN080 BLU
 
LGKZ - Kozani-Elev 628m
Απόσταση από meteothes.gr: ΔΝΔ 102km
Ενημερώθηκε: 16/01/2018 08:50
Ομίχλη, Συννεφιά
Ομίχλη, Συννεφιά
 Ανεμος από άπνοια
Ανεμος: άπνοια
Θερμοκρασία: 2°C
Σημ. Δρόσου: 1°C
Υγρασία: 93%
Βαρόμετρο: 1018 hPa
Συνθήκες: Ομίχλη
Νέφωση: Συννεφιά
Ορατότητα: 1 km
Λεπτομέρειες Νεφών: Μερικώς νεφελώδης 61 m
Συννεφιά 488 m
2018/01/16 06:50 LGKZ 160650Z 00000KT 0500 FG SCT002 OVC016 02/01 Q1018
LGIO - Ioannina-Elev 476m
Απόσταση από meteothes.gr: ΔΝΔ 209km
Ενημερώθηκε: 16/01/2018 09:20
Ομίχλη, Συννεφιά
Ομίχλη, Συννεφιά
 Ανεμος από μεταβλητός
Ανεμος: μεταβλητός 0 km/h
Θερμοκρασία: 7°C
Σημ. Δρόσου: 6°C
Υγρασία: 93%
Βαρόμετρο: 1020 hPa
Συνθήκες: Ομίχλη
Νέφωση: Συννεφιά
Ορατότητα: 1 km
Λεπτομέρειες Νεφών: Συννεφιά 183 m
2018/01/16 07:20 LGIO 160720Z /////KT 0600 FG VV006 07/06 Q1020
 
LGZA - Zakinthos-Elev 3m
Απόσταση από meteothes.gr: ΝΝΔ 367km
Ενημερώθηκε: 16/01/2018 08:50
Διάσπαρτα Nέφη
Διάσπαρτα Nέφη
 Ανεμος από άπνοια
Ανεμος: άπνοια
Θερμοκρασία: 11°C
Σημ. Δρόσου: 9°C
Υγρασία: 88%
Βαρόμετρο: 1021 hPa
Νέφωση: Διάσπαρτα Nέφη
Ορατότητα: 10 km
Λεπτομέρειες Νεφών: Διάσπαρτα Nέφη 610 m
2018/01/16 06:50 LGZA 160650Z 00000KT 9999 FEW020 11/09 Q1021
LGKR - Corfu Island-Elev 2m
Απόσταση από meteothes.gr: ΔΝΔ 282km
Ενημερώθηκε: 16/01/2018 09:20
Μερικώς νεφελώδης
Μερικώς νεφελώδης
 Ανεμος από άπνοια
Ανεμος: άπνοια
Θερμοκρασία: 8°C
Σημ. Δρόσου: 7°C
Υγρασία: 93%
Βαρόμετρο: 1020 hPa
Νέφωση: Μερικώς νεφελώδης
Ορατότητα: 10 km
Λεπτομέρειες Νεφών: Διάσπαρτα Nέφη 244 m
Μερικώς νεφελώδης 488 m
2018/01/16 07:20 LGKR 160720Z 00000KT 9999 FEW008 SCT016 08/07 Q1020 NOSIG
 
LGSO - Syros Island-Elev 72m
Απόσταση από meteothes.gr: ΝΝΑ 397km
Ενημερώθηκε: 16/01/2018 08:50
Μερικώς νεφελώδης
Μερικώς νεφελώδης
 Ανεμος από ΔΝΔ
Ανεμος: ΔΝΔ 17 km/h
Θερμοκρασία: 14°C
Σημ. Δρόσου: 10°C
Υγρασία: 77%
Βαρόμετρο: 1020 hPa
Νέφωση: Μερικώς νεφελώδης
Ορατότητα: 10 km
Λεπτομέρειες Νεφών: Διάσπαρτα Nέφη 427 m
Μερικώς νεφελώδης 549 m
2018/01/16 06:50 LGSO 160650Z 24009KT 9999 FEW014 SCT018 14/10 Q1020
LGMK - Mikonos Island-Elev 123m
Απόσταση από meteothes.gr: ΝΝΑ 412km
Ενημερώθηκε: 16/01/2018 08:50
κυρίως νεφελώδης
κυρίως νεφελώδης
 Ανεμος από ΝΝΔ
Ανεμος: ΝΝΔ 13 km/h, Ριπή: 31 km/h
Θερμοκρασία: 14°C
Σημ. Δρόσου: 11°C
Υγρασία: 82%
Βαρόμετρο: 1020 hPa
Νέφωση: κυρίως νεφελώδης
Ορατότητα: 10 km
Λεπτομέρειες Νεφών: Διάσπαρτα Nέφη 610 m
κυρίως νεφελώδης 762 m
2018/01/16 06:50 LGMK 160650Z 21007G17KT 9999 FEW020TCU BKN025 14/11 Q1020
 
LGSR - Santorini Island-Elev 40m
Απόσταση από meteothes.gr: ΝΝΑ 520km
Ενημερώθηκε: 16/01/2018 09:20
κυρίως νεφελώδης
κυρίως νεφελώδης
 Ανεμος από ΝΝΔ
Ανεμος: ΝΝΔ 22 km/h
Θερμοκρασία: 14°C
Σημ. Δρόσου: 11°C
Υγρασία: 82%
Βαρόμετρο: 1022 hPa
Νέφωση: κυρίως νεφελώδης
Ορατότητα: 10 km
Λεπτομέρειες Νεφών: κυρίως νεφελώδης 610 m
2018/01/16 07:20 LGSR 160720Z 20012KT 9999 BKN020 14/11 Q1022
LGKL - Kalamata-Elev 8m
Απόσταση από meteothes.gr: Ν 405km
Ενημερώθηκε: 16/01/2018 09:20
Αχλύς, κυρίως νεφελώδης
Αχλύς, κυρίως νεφελώδης
 Ανεμος από άπνοια
Ανεμος: άπνοια
Θερμοκρασία: 12°C
Σημ. Δρόσου: 10°C
Υγρασία: 88%
Βαρόμετρο: 1022 hPa
Συνθήκες: Αχλύς
Νέφωση: κυρίως νεφελώδης
Ορατότητα: 4 km
Λεπτομέρειες Νεφών: Διάσπαρτα Nέφη 610 m
Μερικώς νεφελώδης 914 m
κυρίως νεφελώδης 2438 m
2018/01/16 07:20 LGKL 160720Z 00000KT 4000 2000N BR FEW020 SCT030 BKN080 12/10 Q1022
 
LGIR - Iraklion/Crete-Elev 5m
Απόσταση από meteothes.gr: ΝΝΑ 622km
Ενημερώθηκε: 16/01/2018 09:20
Μερικώς νεφελώδης
Μερικώς νεφελώδης
 Ανεμος από Ν
Ανεμος: Ν 20 km/h
Θερμοκρασία: 13°C
Σημ. Δρόσου: 8°C
Υγρασία: 72%
Βαρόμετρο: 1023 hPa
Νέφωση: Μερικώς νεφελώδης
Ορατότητα: 10 km
Λεπτομέρειες Νεφών: Διάσπαρτα Nέφη 762 m
Μερικώς νεφελώδης 2438 m
2018/01/16 07:20 LGIR 160720Z 17011KT 9999 FEW025 SCT080 13/08 Q1023 NOSIG
LGRP - Rhodes-Elev 5m
Απόσταση από meteothes.gr: ΝΑ 649km
Ενημερώθηκε: 16/01/2018 09:20
Διάσπαρτα Nέφη
Διάσπαρτα Nέφη
 Ανεμος από άπνοια
Ανεμος: άπνοια
Θερμοκρασία: 13°C
Σημ. Δρόσου: 10°C
Υγρασία: 82%
Βαρόμετρο: 1023 hPa
Νέφωση: Διάσπαρτα Nέφη
Ορατότητα: 10 km
Λεπτομέρειες Νεφών: Διάσπαρτα Nέφη 549 m
2018/01/16 07:20 LGRP 160720Z 00000KT 9999 FEW018 13/10 Q1023 NOSIG
 
LWOH - Ohrid/FYROM-Elev 761m
Απόσταση από meteothes.gr: ΔΒΔ 188km
Ενημερώθηκε: 16/01/2018 09:30
κυρίως νεφελώδης
κυρίως νεφελώδης
 Ανεμος από ΝΝΑ
Ανεμος: ΝΝΑ 6 km/h
Θερμοκρασία: 4°C
Σημ. Δρόσου: 2°C
Υγρασία: 87%
Βαρόμετρο: 1018 hPa
Νέφωση: κυρίως νεφελώδης
Ορατότητα: 10 km
Λεπτομέρειες Νεφών: Μερικώς νεφελώδης 457 m
κυρίως νεφελώδης 1219 m
2018/01/16 07:30 LWOH 160730Z 15003KT 9999 SCT015 BKN040 04/02 Q1018
LBSF - Sofia/Bulgaria-Elev 595m
Απόσταση από meteothes.gr: Β 227km
Ενημερώθηκε: 16/01/2018 09:30
Αχλύς, Διάσπαρτα νέφη
Αχλύς, Διάσπαρτα νέφη
 Ανεμος από ΒΑ
Ανεμος: ΒΑ 6 km/h
Θερμοκρασία: -2°C
Σημ. Δρόσου: -3°C
Υγρασία: 93%
Βαρόμετρο: 1016 hPa
Συνθήκες: Αχλύς
Νέφωση: Διάσπαρτα Nέφη
Ορατότητα: 5 km
Λεπτομέρειες Νεφών: Διάσπαρτα Nέφη 183 m
2018/01/16 07:30 LBSF 160730Z 04003KT 010V080 4800 BR FEW006 M02/M03 Q1016 R99/590195 NOSIG

(*) Μερικές αναφορές παρουσιάζουν λιγότερα στοιχεία γιατί οι αρχικές είναι ελλιπείς ή έχουν λάθος μορφοποίηση!